Time;durP1;ratioP1;P1;durP2;ratioP2;P2;SDS_P1;SDS_P2;PMS_P1;PMS_P2;Temp;Humidity;BMP_temperature;BMP_pressure;BME280_temperature;BME280_humidity;BME280_pressure;Samples;Min_cycle;Max_cycle;Signal;HPM_P1;HPM_P2
2022/08/18 00:00:24;;;;;;;;;;;;;;;;;;5058120;28;19928;-78
2022/08/18 00:02:50;;;;;;;;;;;;;;;;;;5075740;28;19916;-78
2022/08/18 00:05:15;;;;;;;;;;;;;;;;;;5075979;28;19921;-78
2022/08/18 00:07:40;;;;;;;;;;;;;;;;;;5075486;28;20419;-78
2022/08/18 00:10:05;;;;;;;;;;;;;;;;;;5057737;28;19916;-78
2022/08/18 00:12:42;;;;;;;;;;;;;;;;;;5057388;28;19916;-78
2022/08/18 00:15:08;;;;;;;;;;;;;;;;;;5057892;28;19920;-78
2022/08/18 00:17:33;;;;;;;;;;;;;;;;;;5058214;28;19913;-78
2022/08/18 00:19:59;;;;;;;;;;;;;;;;;;5058038;28;19912;-78
2022/08/18 00:22:24;;;;;;;;;;;;;;;;;;5040873;28;20286;-78
2022/08/18 00:24:51;;;;;;;;;;;;;;;;;;5040797;28;20295;-78
2022/08/18 00:27:21;;;;;;;;;;;;;;;;;;5058036;28;20365;-78
2022/08/18 00:29:46;;;;;;;;;;;;;;;;;;5057352;28;19912;-78
2022/08/18 00:32:20;;;;;;;;;;;;;;;;;;5057206;28;19956;-78
2022/08/18 00:34:45;;;;;;;;;;;;;;;;;;5057760;28;20006;-78
2022/08/18 00:37:10;;;;;;;;;;;;;;;;;;5057178;28;19966;-78
2022/08/18 00:39:36;;;;;;;;;;;;;;;;;;5057174;28;20366;-78
2022/08/18 00:42:10;;;;;;;;;;;;;;;;;;5074973;28;19916;-78
2022/08/18 00:44:36;;;;;;;;;;;;;;;;;;5057389;28;19932;-78
2022/08/18 00:47:01;;;;;;;;;;;;;;;;;;5057066;28;19918;-78
2022/08/18 00:49:26;;;;;;;;;;;;;;;;;;5073224;28;19930;-77
2022/08/18 00:51:52;;;;;;;;;;;;;;;;;;5095099;28;19930;-78
2022/08/18 00:54:22;;;;;;;;;;;;;;;;;;5076970;28;19954;-78
2022/08/18 00:56:51;;;;;;;;;;;;;;;;;;5076770;28;19919;-78
2022/08/18 00:59:37;;;;;;;;;;;;;;;;;;5060202;28;19912;-78
2022/08/18 01:02:04;;;;;;;;;;;;;;;;;;5075945;28;20434;-78
2022/08/18 01:04:34;;;;;;;;;;;;;;;;;;5077323;28;20018;-78
2022/08/18 01:07:11;;;;;;;;;;;;;;;;;;5076773;28;19999;-78
2022/08/18 01:09:36;;;;;;;;;;;;;;;;;;5076807;28;20362;-79
2022/08/18 01:12:02;;;;;;;;;;;;;;;;;;5059772;28;19923;-78
2022/08/18 01:14:27;;;;;;;;;;;;;;;;;;5094914;28;19963;-78
2022/08/18 01:22:37;;;;;;;;;;;;;;;;;;5079540;28;20339;-78
2022/08/18 01:27:47;;;;;;;;;;;;;;;;;;5079444;28;20421;-78
2022/08/18 01:30:13;;;;;;;;;;;;;;;;;;5059529;28;19916;-77
2022/08/18 01:32:39;;;;;;;;;;;;;;;;;;5059511;28;19919;-78
2022/08/18 01:35:07;;;;;;;;;;;;;;;;;;5059336;28;19916;-78
2022/08/18 01:37:32;;;;;;;;;;;;;;;;;;5076950;28;19912;-78
2022/08/18 01:39:58;;;;;;;;;;;;;;;;;;5076020;28;20453;-78
2022/08/18 01:42:23;;;;;;;;;;;;;;;;;;5076295;28;20051;-78
2022/08/18 01:44:50;;;;;;;;;;;;;;;;;;5094270;28;19986;-78
2022/08/18 01:47:17;;;;;;;;;;;;;;;;;;5076187;28;19966;-78
2022/08/18 01:49:42;;;;;;;;;;;;;;;;;;5075979;28;19973;-78
2022/08/18 01:52:08;;;;;;;;;;;;;;;;;;5094034;28;19916;-78
2022/08/18 01:54:33;;;;;;;;;;;;;;;;;;5059147;28;19916;-78
2022/08/18 01:56:58;;;;;;;;;;;;;;;;;;5093990;28;19916;-78
2022/08/18 01:59:24;;;;;;;;;;;;;;;;;;5075251;28;20359;-78
2022/08/18 02:01:53;;;;;;;;;;;;;;;;;;5075759;28;19972;-78
2022/08/18 02:04:18;;;;;;;;;;;;;;;;;;5076288;28;19920;-78
2022/08/18 02:06:44;;;;;;;;;;;;;;;;;;5075909;28;20267;-78
2022/08/18 02:09:09;;;;;;;;;;;;;;;;;;5075618;28;20003;-78
2022/08/18 02:11:34;;;;;;;;;;;;;;;;;;5075583;28;19967;-78
2022/08/18 02:14:00;;;;;;;;;;;;;;;;;;5093826;28;19920;-78
2022/08/18 02:16:25;;;;;;;;;;;;;;;;;;5076016;28;20329;-78
2022/08/18 02:18:50;;;;;;;;;;;;;;;;;;5059067;28;19962;-78
2022/08/18 02:21:17;;;;;;;;;;;;;;;;;;5093794;28;19922;-78
2022/08/18 02:23:42;;;;;;;;;;;;;;;;;;5058719;28;19912;-78
2022/08/18 02:26:08;;;;;;;;;;;;;;;;;;5058682;28;19912;-78
2022/08/18 02:28:34;;;;;;;;;;;;;;;;;;5075914;28;19913;-77
2022/08/18 02:31:13;;;;;;;;;;;;;;;;;;5075519;28;19935;-77
2022/08/18 02:33:39;;;;;;;;;;;;;;;;;;5075549;28;19912;-77
2022/08/18 02:36:05;;;;;;;;;;;;;;;;;;5058765;28;19924;-77
2022/08/18 02:38:31;;;;;;;;;;;;;;;;;;5093525;28;19917;-77
2022/08/18 02:40:57;;;;;;;;;;;;;;;;;;5075495;28;19912;-77
2022/08/18 02:43:22;;;;;;;;;;;;;;;;;;5058591;28;20357;-78
2022/08/18 02:45:48;;;;;;;;;;;;;;;;;;5075294;28;19917;-77
2022/08/18 02:48:13;;;;;;;;;;;;;;;;;;5055020;28;19924;-78
2022/08/18 02:50:45;;;;;;;;;;;;;;;;;;5073352;28;19962;-79
2022/08/18 02:53:17;;;;;;;;;;;;;;;;;;5056566;28;19917;-78
2022/08/18 02:55:42;;;;;;;;;;;;;;;;;;5071842;28;19917;-78
2022/08/18 02:58:08;;;;;;;;;;;;;;;;;;5055029;28;20007;-80
2022/08/18 03:00:33;;;;;;;;;;;;;;;;;;5055490;28;20375;-78
2022/08/18 03:02:59;;;;;;;;;;;;;;;;;;5055334;28;20018;-78
2022/08/18 03:05:27;;;;;;;;;;;;;;;;;;5055270;28;19924;-78
2022/08/18 03:07:52;;;;;;;;;;;;;;;;;;5071589;28;19969;-78
2022/08/18 03:10:18;;;;;;;;;;;;;;;;;;5055216;28;19916;-78
2022/08/18 03:12:43;;;;;;;;;;;;;;;;;;5058656;28;19916;-79
2022/08/18 03:15:08;;;;;;;;;;;;;;;;;;5076490;28;19920;-79
2022/08/18 03:17:34;;;;;;;;;;;;;;;;;;5041961;28;20015;-79
2022/08/18 03:19:59;;;;;;;;;;;;;;;;;;5076679;28;20395;-79
2022/08/18 03:22:25;;;;;;;;;;;;;;;;;;5058727;28;19917;-78
2022/08/18 03:24:50;;;;;;;;;;;;;;;;;;5058365;28;20279;-79
2022/08/18 03:27:15;;;;;;;;;;;;;;;;;;5058705;28;19916;-78
2022/08/18 03:29:40;;;;;;;;;;;;;;;;;;5076396;28;19924;-78
2022/08/18 03:32:06;;;;;;;;;;;;;;;;;;5058336;28;20011;-78
2022/08/18 03:34:31;;;;;;;;;;;;;;;;;;5058605;28;19919;-78
2022/08/18 03:36:56;;;;;;;;;;;;;;;;;;5058341;28;19917;-79
2022/08/18 03:39:22;;;;;;;;;;;;;;;;;;5074883;28;19916;-78
2022/08/18 03:41:47;;;;;;;;;;;;;;;;;;5058574;28;19938;-78
2022/08/18 03:44:13;;;;;;;;;;;;;;;;;;5041475;28;19971;-79
2022/08/18 03:46:39;;;;;;;;;;;;;;;;;;5058405;28;20292;-78
2022/08/18 03:49:04;;;;;;;;;;;;;;;;;;5071919;28;19931;-78
2022/08/18 03:51:33;;;;;;;;;;;;;;;;;;5061218;28;19916;-79
2022/08/18 03:54:00;;;;;;;;;;;;;;;;;;5078888;28;19912;-78
2022/08/18 03:56:26;;;;;;;;;;;;;;;;;;5078034;28;19939;-78
2022/08/18 03:58:54;;;;;;;;;;;;;;;;;;5078159;28;19912;-79
2022/08/18 04:01:20;;;;;;;;;;;;;;;;;;5078203;28;19912;-79
2022/08/18 04:03:46;;;;;;;;;;;;;;;;;;5061000;28;19912;-79
2022/08/18 04:06:23;;;;;;;;;;;;;;;;;;5078054;28;20428;-79
2022/08/18 04:08:52;;;;;;;;;;;;;;;;;;5061020;28;19981;-79
2022/08/18 04:11:17;;;;;;;;;;;;;;;;;;5060817;28;19919;-78
2022/08/18 04:13:43;;;;;;;;;;;;;;;;;;5060871;28;19920;-78
2022/08/18 04:16:08;;;;;;;;;;;;;;;;;;5060778;28;19916;-79
2022/08/18 04:18:33;;;;;;;;;;;;;;;;;;5077408;28;19930;-79
2022/08/18 04:21:02;;;;;;;;;;;;;;;;;;5077357;28;19920;-78
2022/08/18 04:23:28;;;;;;;;;;;;;;;;;;5077106;28;19930;-81
2022/08/18 04:25:57;;;;;;;;;;;;;;;;;;5077380;28;20348;-81
2022/08/18 04:28:22;;;;;;;;;;;;;;;;;;5060586;28;20378;-81
2022/08/18 04:30:47;;;;;;;;;;;;;;;;;;5077127;28;19988;-82
2022/08/18 04:33:13;;;;;;;;;;;;;;;;;;5077413;28;19916;-82
2022/08/18 04:35:38;;;;;;;;;;;;;;;;;;5060652;28;19917;-80
2022/08/18 04:38:04;;;;;;;;;;;;;;;;;;5077251;28;20006;-82
2022/08/18 04:40:32;;;;;;;;;;;;;;;;;;5077510;28;20046;-82
2022/08/18 04:42:57;;;;;;;;;;;;;;;;;;5078296;28;19923;-81
2022/08/18 04:45:23;;;;;;;;;;;;;;;;;;5095819;28;20274;-82
2022/08/18 04:47:48;;;;;;;;;;;;;;;;;;5077255;28;19931;-81
2022/08/18 04:50:13;;;;;;;;;;;;;;;;;;5094156;28;20396;-81
2022/08/18 04:55:22;;;;;;;;;;;;;;;;;;5096152;28;19931;-80
2022/08/18 04:57:48;;;;;;;;;;;;;;;;;;5096214;28;19916;-80
2022/08/18 05:00:13;;;;;;;;;;;;;;;;;;5079785;28;19924;-80
2022/08/18 05:02:39;;;;;;;;;;;;;;;;;;5081639;28;19974;-77
2022/08/18 05:05:05;;;;;;;;;;;;;;;;;;5069658;28;19920;-78
2022/08/18 05:07:31;;;;;;;;;;;;;;;;;;5064102;28;19916;-79
2022/08/18 05:09:56;;;;;;;;;;;;;;;;;;5067817;28;19912;-78
2022/08/18 05:12:22;;;;;;;;;;;;;;;;;;5083017;28;19916;-76
2022/08/18 05:14:47;;;;;;;;;;;;;;;;;;5083972;28;20381;-77
2022/08/18 05:17:13;;;;;;;;;;;;;;;;;;5102935;28;19916;-78
2022/08/18 05:19:39;;;;;;;;;;;;;;;;;;5082339;28;19919;-78
2022/08/18 05:22:06;;;;;;;;;;;;;;;;;;5080772;28;19920;-78
2022/08/18 05:24:34;;;;;;;;;;;;;;;;;;5060970;28;20271;-79
2022/08/18 05:26:59;;;;;;;;;;;;;;;;;;5078312;28;19963;-79
2022/08/18 05:29:25;;;;;;;;;;;;;;;;;;5079121;28;19923;-79
2022/08/18 05:31:51;;;;;;;;;;;;;;;;;;5077546;28;20422;-80
2022/08/18 05:34:16;;;;;;;;;;;;;;;;;;5095539;28;19916;-79
2022/08/18 05:36:43;;;;;;;;;;;;;;;;;;5096251;28;19916;-79
2022/08/18 05:39:08;;;;;;;;;;;;;;;;;;5077622;28;19912;-79
2022/08/18 05:41:35;;;;;;;;;;;;;;;;;;5097658;28;19920;-79
2022/08/18 05:44:00;;;;;;;;;;;;;;;;;;5077633;28;19917;-76
2022/08/18 05:46:41;;;;;;;;;;;;;;;;;;5079305;28;20274;-76
2022/08/18 05:49:07;;;;;;;;;;;;;;;;;;5096039;28;19927;-79
2022/08/18 05:51:39;;;;;;;;;;;;;;;;;;5078780;28;19916;-77
2022/08/18 05:56:49;;;;;;;;;;;;;;;;;;5082322;28;20409;-79
2022/08/18 05:59:35;;;;;;;;;;;;;;;;;;5079517;28;19920;-79
2022/08/18 06:02:03;;;;;;;;;;;;;;;;;;5096300;28;20366;-78
2022/08/18 06:04:32;;;;;;;;;;;;;;;;;;5078447;28;20011;-78
2022/08/18 06:06:57;;;;;;;;;;;;;;;;;;5077355;28;19919;-78
2022/08/18 06:09:24;;;;;;;;;;;;;;;;;;5077129;28;19916;-79
2022/08/18 06:11:50;;;;;;;;;;;;;;;;;;5061460;28;19912;-80
2022/08/18 06:14:15;;;;;;;;;;;;;;;;;;5077366;28;19927;-79
2022/08/18 06:16:44;;;;;;;;;;;;;;;;;;5077309;28;20423;-80
2022/08/18 06:19:09;;;;;;;;;;;;;;;;;;5076850;28;19912;-80
2022/08/18 06:21:37;;;;;;;;;;;;;;;;;;5094847;28;19912;-79
2022/08/18 06:24:21;;;;;;;;;;;;;;;;;;5094561;28;19985;-77
2022/08/18 06:26:50;;;;;;;;;;;;;;;;;;5077169;28;19962;-78
2022/08/18 06:29:21;;;;;;;;;;;;;;;;;;5095042;28;19959;-78
2022/08/18 06:32:00;;;;;;;;;;;;;;;;;;5076564;28;19916;-78
2022/08/18 06:34:39;;;;;;;;;;;;;;;;;;5094674;28;19912;-78
2022/08/18 06:37:07;;;;;;;;;;;;;;;;;;5095355;28;19916;-77
2022/08/18 06:39:46;;;;;;;;;;;;;;;;;;5094651;28;20254;-77
2022/08/18 06:42:14;;;;;;;;;;;;;;;;;;5094704;28;20011;-77
2022/08/18 06:44:47;;;;;;;;;;;;;;;;;;5063645;28;19928;-77
2022/08/18 06:47:24;;;;;;;;;;;;;;;;;;5081055;28;20286;-77
2022/08/18 06:50:03;;;;;;;;;;;;;;;;;;5098536;28;19920;-77
2022/08/18 06:52:29;;;;;;;;;;;;;;;;;;5080498;28;19912;-77
2022/08/18 06:54:55;;;;;;;;;;;;;;;;;;5080024;28;20003;-77
2022/08/18 06:57:29;;;;;;;;;;;;;;;;;;5062939;28;19935;-77
2022/08/18 07:00:04;;;;;;;;;;;;;;;;;;5062634;28;20360;-77
2022/08/18 07:02:36;;;;;;;;;;;;;;;;;;5080377;28;20007;-77
2022/08/18 07:05:04;;;;;;;;;;;;;;;;;;5097863;28;19982;-77
2022/08/18 07:07:38;;;;;;;;;;;;;;;;;;5063072;28;20015;-76
2022/08/18 07:10:23;;;;;;;;;;;;;;;;;;5079945;28;19955;-77
2022/08/18 07:12:49;;;;;;;;;;;;;;;;;;5068869;28;20325;-77
2022/08/18 07:15:14;;;;;;;;;;;;;;;;;;5080937;28;19924;-77
2022/08/18 07:17:40;;;;;;;;;;;;;;;;;;5079826;28;19917;-76
2022/08/18 07:20:07;;;;;;;;;;;;;;;;;;5098141;28;20298;-77
2022/08/18 07:22:51;;;;;;;;;;;;;;;;;;5080156;28;20325;-77
2022/08/18 07:25:18;;;;;;;;;;;;;;;;;;5063324;28;19916;-77
2022/08/18 07:27:47;;;;;;;;;;;;;;;;;;5080409;28;20390;-77
2022/08/18 07:30:33;;;;;;;;;;;;;;;;;;5063953;28;20367;-77
2022/08/18 07:33:11;;;;;;;;;;;;;;;;;;5095947;28;19934;-76
2022/08/18 07:35:44;;;;;;;;;;;;;;;;;;5078513;28;19912;-76
2022/08/18 07:38:16;;;;;;;;;;;;;;;;;;5078966;28;19990;-76
2022/08/18 07:40:51;;;;;;;;;;;;;;;;;;5062304;28;19916;-76
2022/08/18 07:43:19;;;;;;;;;;;;;;;;;;5078116;28;20343;-76
2022/08/18 07:45:45;;;;;;;;;;;;;;;;;;5078223;28;20011;-76
2022/08/18 07:48:12;;;;;;;;;;;;;;;;;;5072439;28;19979;-76
2022/08/18 07:50:49;;;;;;;;;;;;;;;;;;5058057;28;20298;-76
2022/08/18 07:53:25;;;;;;;;;;;;;;;;;;5041119;28;21315;-76
2022/08/18 07:55:53;;;;;;;;;;;;;;;;;;5058097;28;19962;-76
2022/08/18 07:58:30;;;;;;;;;;;;;;;;;;5058263;28;20308;-78
2022/08/18 08:01:03;;;;;;;;;;;;;;;;;;5057825;28;19956;-76
2022/08/18 08:03:41;;;;;;;;;;;;;;;;;;5041725;28;20015;-76
2022/08/18 08:06:19;;;;;;;;;;;;;;;;;;5076013;28;19916;-76
2022/08/18 08:08:59;;;;;;;;;;;;;;;;;;5042841;28;19912;-77
2022/08/18 08:11:43;;;;;;;;;;;;;;;;;;5060865;28;19924;-77
2022/08/18 08:14:17;;;;;;;;;;;;;;;;;;5043554;28;19983;-76
2022/08/18 08:16:45;;;;;;;;;;;;;;;;;;5059648;28;19924;-75
2022/08/18 08:19:22;;;;;;;;;;;;;;;;;;5059597;28;19912;-75
2022/08/18 08:21:50;;;;;;;;;;;;;;;;;;5041682;28;19912;-75
2022/08/18 08:24:20;;;;;;;;;;;;;;;;;;5041826;28;19916;-76
2022/08/18 08:26:46;;;;;;;;;;;;;;;;;;5041626;28;19962;-76
2022/08/18 08:29:30;;;;;;;;;;;;;;;;;;5075685;28;19917;-76
2022/08/18 08:32:03;;;;;;;;;;;;;;;;;;5058099;28;20011;-76
2022/08/18 08:34:31;;;;;;;;;;;;;;;;;;5040869;28;20387;-76
2022/08/18 08:36:59;;;;;;;;;;;;;;;;;;5057590;28;19962;-75
2022/08/18 08:39:34;;;;;;;;;;;;;;;;;;5040974;28;19948;-76
2022/08/18 08:42:03;;;;;;;;;;;;;;;;;;5040835;28;19919;-76
2022/08/18 08:44:31;;;;;;;;;;;;;;;;;;5040421;28;19924;-76
2022/08/18 08:47:09;;;;;;;;;;;;;;;;;;5057742;28;20011;-76
2022/08/18 08:49:41;;;;;;;;;;;;;;;;;;5092803;28;19936;-76
2022/08/18 08:52:12;;;;;;;;;;;;;;;;;;5077104;28;19916;-76
2022/08/18 08:54:48;;;;;;;;;;;;;;;;;;5077127;28;19912;-76
2022/08/18 08:57:14;;;;;;;;;;;;;;;;;;5060510;28;20022;-76
2022/08/18 08:59:39;;;;;;;;;;;;;;;;;;5060225;28;19912;-76
2022/08/18 09:02:04;;;;;;;;;;;;;;;;;;5077259;28;19923;-76
2022/08/18 09:04:46;;;;;;;;;;;;;;;;;;5076797;28;19920;-76
2022/08/18 09:07:12;;;;;;;;;;;;;;;;;;5060209;28;19916;-76
2022/08/18 09:09:37;;;;;;;;;;;;;;;;;;5076426;28;19961;-76
2022/08/18 09:12:02;;;;;;;;;;;;;;;;;;5076789;28;20389;-76
2022/08/18 09:14:46;;;;;;;;;;;;;;;;;;5095383;28;19912;-77
2022/08/18 09:17:23;;;;;;;;;;;;;;;;;;5095381;28;19947;-76
2022/08/18 09:19:49;;;;;;;;;;;;;;;;;;5076385;28;20006;-76
2022/08/18 09:22:14;;;;;;;;;;;;;;;;;;5094578;28;20021;-76
2022/08/18 09:24:40;;;;;;;;;;;;;;;;;;5094568;28;19916;-77
2022/08/18 09:27:31;;;;;;;;;;;;;;;;;;5059628;28;19912;-76
2022/08/18 09:29:58;;;;;;;;;;;;;;;;;;5060282;28;20273;-76
2022/08/18 09:32:24;;;;;;;;;;;;;;;;;;5076354;28;20048;-75
2022/08/18 09:35:25;;;;;;;;;;;;;;;;;;5094540;28;19919;-75
2022/08/18 09:43:38;;;;;;;;;;;;;;;;;;5012448;28;20455;-76
2022/08/18 09:46:04;;;;;;;;;;;;;;;;;;4979530;28;19922;-76
2022/08/18 09:48:29;;;;;;;;;;;;;;;;;;4987519;28;20381;-76
2022/08/18 09:50:56;;;;;;;;;;;;;;;;;;4992633;28;19914;-76
2022/08/18 09:53:31;;;;;;;;;;;;;;;;;;4976974;28;19917;-76
2022/08/18 09:55:57;;;;;;;;;;;;;;;;;;4992766;28;19914;-76
2022/08/18 09:58:25;;;;;;;;;;;;;;;;;;4960219;28;19914;-76
2022/08/18 10:01:08;;;;;;;;;;;;;;;;;;4993302;28;19954;-77
2022/08/18 10:03:34;;;;;;;;;;;;;;;;;;4992594;28;19918;-76
2022/08/18 10:06:04;;;;;;;;;;;;;;;;;;4977097;28;20274;-76
2022/08/18 10:08:38;;;;;;;;;;;;;;;;;;4976212;28;19960;-77
2022/08/18 10:11:12;;;;;;;;;;;;;;;;;;4974982;28;19919;-77
2022/08/18 10:13:37;;;;;;;;;;;;;;;;;;5038910;28;20252;-77
2022/08/18 10:16:20;;;;;;;;;;;;;;;;;;5074201;28;19957;-77
2022/08/18 10:19:06;;;;;;;;;;;;;;;;;;5056362;28;19912;-77
2022/08/18 10:21:50;;;;;;;;;;;;;;;;;;5055508;28;19924;-77
2022/08/18 10:24:17;;;;;;;;;;;;;;;;;;5074550;28;19917;-77
2022/08/18 10:26:43;;;;;;;;;;;;;;;;;;5039356;28;20378;-78
2022/08/18 10:29:23;;;;;;;;;;;;;;;;;;5073930;28;19913;-77
2022/08/18 10:31:58;;;;;;;;;;;;;;;;;;5074117;28;19919;-77
2022/08/18 10:34:42;;;;;;;;;;;;;;;;;;5055480;28;19920;-78
2022/08/18 10:37:11;;;;;;;;;;;;;;;;;;5073531;28;19913;-77
2022/08/18 10:39:39;;;;;;;;;;;;;;;;;;5073441;28;20011;-78
2022/08/18 10:42:22;;;;;;;;;;;;;;;;;;5073695;28;19919;-78
2022/08/18 10:44:48;;;;;;;;;;;;;;;;;;5056282;28;19924;-78
2022/08/18 10:47:24;;;;;;;;;;;;;;;;;;5056468;28;19977;-77
2022/08/18 10:49:49;;;;;;;;;;;;;;;;;;5039991;28;19955;-78
2022/08/18 10:52:31;;;;;;;;;;;;;;;;;;5074207;28;19916;-78
2022/08/18 10:55:15;;;;;;;;;;;;;;;;;;5056922;28;19920;-78
2022/08/18 10:57:52;;;;;;;;;;;;;;;;;;5073984;28;19935;-78
2022/08/18 11:00:18;;;;;;;;;;;;;;;;;;5056546;28;20397;-78
2022/08/18 11:02:51;;;;;;;;;;;;;;;;;;5040431;28;20023;-78
2022/08/18 11:05:17;;;;;;;;;;;;;;;;;;5074621;28;19917;-78
2022/08/18 11:07:45;;;;;;;;;;;;;;;;;;5055936;28;19912;-78
2022/08/18 11:10:22;;;;;;;;;;;;;;;;;;5059660;28;19912;-78
2022/08/18 11:13:14;;;;;;;;;;;;;;;;;;5057634;28;19913;-79
2022/08/18 11:15:48;;;;;;;;;;;;;;;;;;5069117;28;19921;-78
2022/08/18 11:18:27;;;;;;;;;;;;;;;;;;5055166;28;19942;-78
2022/08/18 11:20:53;;;;;;;;;;;;;;;;;;5054789;28;20353;-78
2022/08/18 11:23:19;;;;;;;;;;;;;;;;;;5054660;28;20012;-78
2022/08/18 11:25:44;;;;;;;;;;;;;;;;;;5038371;28;19920;-78
2022/08/18 11:28:14;;;;;;;;;;;;;;;;;;5074381;28;19920;-77
2022/08/18 11:30:39;;;;;;;;;;;;;;;;;;5074103;28;19920;-77
2022/08/18 11:33:05;;;;;;;;;;;;;;;;;;5057477;28;19920;-77
2022/08/18 11:35:31;;;;;;;;;;;;;;;;;;5042699;28;19917;-78
2022/08/18 11:38:01;;;;;;;;;;;;;;;;;;5076892;28;19939;-77
2022/08/18 11:40:34;;;;;;;;;;;;;;;;;;5058481;28;19919;-77
2022/08/18 11:43:02;;;;;;;;;;;;;;;;;;5058518;28;19913;-76
2022/08/18 11:45:34;;;;;;;;;;;;;;;;;;5076470;28;19983;-77
2022/08/18 11:48:18;;;;;;;;;;;;;;;;;;5041967;28;19920;-77
2022/08/18 11:50:47;;;;;;;;;;;;;;;;;;5059652;28;19916;-77
2022/08/18 11:53:13;;;;;;;;;;;;;;;;;;5077124;28;19912;-77
2022/08/18 11:55:39;;;;;;;;;;;;;;;;;;5042079;28;20271;-76
2022/08/18 11:58:05;;;;;;;;;;;;;;;;;;5042831;28;19921;-77
2022/08/18 12:00:37;;;;;;;;;;;;;;;;;;5042043;28;19978;-77
2022/08/18 12:03:07;;;;;;;;;;;;;;;;;;5076169;28;20267;-77
2022/08/18 12:05:43;;;;;;;;;;;;;;;;;;5041294;28;19916;-76
2022/08/18 12:08:20;;;;;;;;;;;;;;;;;;5058841;28;19913;-76
2022/08/18 12:10:47;;;;;;;;;;;;;;;;;;5041610;28;20436;-77
2022/08/18 12:13:20;;;;;;;;;;;;;;;;;;5041327;28;19916;-76
2022/08/18 12:15:46;;;;;;;;;;;;;;;;;;5057891;28;20020;-77
2022/08/18 12:18:11;;;;;;;;;;;;;;;;;;5058380;28;19926;-77
2022/08/18 12:20:36;;;;;;;;;;;;;;;;;;5057517;28;19923;-77
2022/08/18 12:23:01;;;;;;;;;;;;;;;;;;5058109;28;19913;-77
2022/08/18 12:25:27;;;;;;;;;;;;;;;;;;5057582;28;20032;-76
2022/08/18 12:27:53;;;;;;;;;;;;;;;;;;5076148;28;20256;-76
2022/08/18 12:30:19;;;;;;;;;;;;;;;;;;5041186;28;20367;-77
2022/08/18 12:32:44;;;;;;;;;;;;;;;;;;5075802;28;19927;-77
2022/08/18 12:35:10;;;;;;;;;;;;;;;;;;5057564;28;19917;-77
2022/08/18 12:37:37;;;;;;;;;;;;;;;;;;5057383;28;19912;-76
2022/08/18 12:40:03;;;;;;;;;;;;;;;;;;5057140;28;19917;-76
2022/08/18 12:42:28;;;;;;;;;;;;;;;;;;5040790;28;20251;-77
2022/08/18 12:44:53;;;;;;;;;;;;;;;;;;5056557;28;19924;-76
2022/08/18 12:47:20;;;;;;;;;;;;;;;;;;5074720;28;19916;-77
2022/08/18 12:49:45;;;;;;;;;;;;;;;;;;5040678;28;20413;-76
2022/08/18 12:52:11;;;;;;;;;;;;;;;;;;5057813;28;20022;-76
2022/08/18 12:54:36;;;;;;;;;;;;;;;;;;5057781;28;19923;-76
2022/08/18 12:57:02;;;;;;;;;;;;;;;;;;5040347;28;19991;-76
2022/08/18 12:59:28;;;;;;;;;;;;;;;;;;5040514;28;19912;-76
2022/08/18 13:01:53;;;;;;;;;;;;;;;;;;5041107;28;19913;-77
2022/08/18 13:04:19;;;;;;;;;;;;;;;;;;5058299;28;19916;-77
2022/08/18 13:06:48;;;;;;;;;;;;;;;;;;5040532;28;20073;-77
2022/08/18 13:09:14;;;;;;;;;;;;;;;;;;5057401;28;19912;-77
2022/08/18 13:11:40;;;;;;;;;;;;;;;;;;5056858;28;19952;-76
2022/08/18 13:14:06;;;;;;;;;;;;;;;;;;5040813;28;19928;-77
2022/08/18 13:16:31;;;;;;;;;;;;;;;;;;5056666;28;19912;-77
2022/08/18 13:18:57;;;;;;;;;;;;;;;;;;5057249;28;20011;-76
2022/08/18 13:21:22;;;;;;;;;;;;;;;;;;5056507;28;19924;-77
2022/08/18 13:23:48;;;;;;;;;;;;;;;;;;5056270;28;19916;-77
2022/08/18 13:26:20;;;;;;;;;;;;;;;;;;5074164;28;19920;-77
2022/08/18 13:28:45;;;;;;;;;;;;;;;;;;5056835;28;19959;-77
2022/08/18 13:31:11;;;;;;;;;;;;;;;;;;5056692;28;19923;-77
2022/08/18 13:33:36;;;;;;;;;;;;;;;;;;5075982;28;20319;-77
2022/08/18 13:36:02;;;;;;;;;;;;;;;;;;5056955;28;19916;-76
2022/08/18 13:38:27;;;;;;;;;;;;;;;;;;5074736;28;19916;-76
2022/08/18 13:40:53;;;;;;;;;;;;;;;;;;5056235;28;19917;-76
2022/08/18 13:43:20;;;;;;;;;;;;;;;;;;5056232;28;19912;-77
2022/08/18 13:45:48;;;;;;;;;;;;;;;;;;5039376;28;19989;-77
2022/08/18 13:48:14;;;;;;;;;;;;;;;;;;5040471;28;19952;-76
2022/08/18 13:50:39;;;;;;;;;;;;;;;;;;5094182;28;19916;-76
2022/08/18 13:53:05;;;;;;;;;;;;;;;;;;5060014;28;19920;-76
2022/08/18 13:55:30;;;;;;;;;;;;;;;;;;5058967;28;19954;-76
2022/08/18 13:57:55;;;;;;;;;;;;;;;;;;5094351;28;20375;-77
2022/08/18 14:00:21;;;;;;;;;;;;;;;;;;5094062;28;19920;-77
2022/08/18 14:02:52;;;;;;;;;;;;;;;;;;5076398;28;19912;-76
2022/08/18 14:05:18;;;;;;;;;;;;;;;;;;5059904;28;19924;-77
2022/08/18 14:07:43;;;;;;;;;;;;;;;;;;5093057;28;19922;-76
2022/08/18 14:10:09;;;;;;;;;;;;;;;;;;5076278;28;19912;-76
2022/08/18 14:12:36;;;;;;;;;;;;;;;;;;5075767;28;20404;-76
2022/08/18 14:15:01;;;;;;;;;;;;;;;;;;5075819;28;19948;-76
2022/08/18 14:17:27;;;;;;;;;;;;;;;;;;5075757;28;19920;-76
2022/08/18 14:28:04;;;;;;;;;;;;;;;;;;5078724;28;20416;-78
2022/08/18 14:30:30;;;;;;;;;;;;;;;;;;5059073;28;19916;-78
2022/08/18 14:32:56;;;;;;;;;;;;;;;;;;5059054;28;19980;-78
2022/08/18 14:35:21;;;;;;;;;;;;;;;;;;5075207;28;19961;-78
2022/08/18 14:37:46;;;;;;;;;;;;;;;;;;5058378;28;19916;-77
2022/08/18 14:40:12;;;;;;;;;;;;;;;;;;5058556;28;19912;-75
2022/08/18 14:42:38;;;;;;;;;;;;;;;;;;5076073;28;19942;-78
2022/08/18 14:45:04;;;;;;;;;;;;;;;;;;5076204;28;19924;-79
2022/08/18 14:47:30;;;;;;;;;;;;;;;;;;5075571;28;19919;-78
2022/08/18 14:49:56;;;;;;;;;;;;;;;;;;5055987;28;19920;-78
2022/08/18 14:52:22;;;;;;;;;;;;;;;;;;5055981;28;19954;-78
2022/08/18 14:54:48;;;;;;;;;;;;;;;;;;5055435;28;19917;-78
2022/08/18 14:57:13;;;;;;;;;;;;;;;;;;5038547;28;19962;-78
2022/08/18 14:59:39;;;;;;;;;;;;;;;;;;5055440;28;19916;-78
2022/08/18 15:02:05;;;;;;;;;;;;;;;;;;5072293;28;19920;-78
2022/08/18 15:04:30;;;;;;;;;;;;;;;;;;5039173;28;19916;-79
2022/08/18 15:06:55;;;;;;;;;;;;;;;;;;5056683;28;19913;-78
2022/08/18 15:09:21;;;;;;;;;;;;;;;;;;5074747;28;19920;-78
2022/08/18 15:11:47;;;;;;;;;;;;;;;;;;5058668;28;19987;-78
2022/08/18 15:14:13;;;;;;;;;;;;;;;;;;5059019;28;20254;-78
2022/08/18 15:16:39;;;;;;;;;;;;;;;;;;5058469;28;19923;-78
2022/08/18 15:19:04;;;;;;;;;;;;;;;;;;5076682;28;19921;-78
2022/08/18 15:26:59;;;;;;;;;;;;;;;;;;5061823;28;19957;-79
2022/08/18 15:29:25;;;;;;;;;;;;;;;;;;5042019;28;19912;-79
2022/08/18 15:31:50;;;;;;;;;;;;;;;;;;5059260;28;19942;-78
2022/08/18 15:34:16;;;;;;;;;;;;;;;;;;5059264;28;19920;-78
2022/08/18 15:36:41;;;;;;;;;;;;;;;;;;5059581;28;19912;-78
2022/08/18 15:39:07;;;;;;;;;;;;;;;;;;5075702;28;19916;-78
2022/08/18 15:41:33;;;;;;;;;;;;;;;;;;5075332;28;19952;-77
2022/08/18 15:43:59;;;;;;;;;;;;;;;;;;5041665;28;19938;-78
2022/08/18 15:46:25;;;;;;;;;;;;;;;;;;5057754;28;19924;-79
2022/08/18 15:48:50;;;;;;;;;;;;;;;;;;5051794;28;19920;-79
2022/08/18 15:51:16;;;;;;;;;;;;;;;;;;5095321;28;20019;-79
2022/08/18 15:53:41;;;;;;;;;;;;;;;;;;5077122;28;19959;-78
2022/08/18 15:56:11;;;;;;;;;;;;;;;;;;5095349;28;20006;-79
2022/08/18 15:58:36;;;;;;;;;;;;;;;;;;5077214;28;19919;-77
2022/08/18 16:01:02;;;;;;;;;;;;;;;;;;5077142;28;19916;-78
2022/08/18 16:03:27;;;;;;;;;;;;;;;;;;5060241;28;19920;-78
2022/08/18 16:05:53;;;;;;;;;;;;;;;;;;5076969;28;19943;-78
2022/08/18 16:08:20;;;;;;;;;;;;;;;;;;5060047;28;19919;-79
2022/08/18 16:10:45;;;;;;;;;;;;;;;;;;5076877;28;19918;-78
2022/08/18 16:13:13;;;;;;;;;;;;;;;;;;5076908;28;20005;-78
2022/08/18 16:15:39;;;;;;;;;;;;;;;;;;5060334;28;19969;-78
2022/08/18 16:18:05;;;;;;;;;;;;;;;;;;5060029;28;20342;-79
2022/08/18 16:20:31;;;;;;;;;;;;;;;;;;5060983;28;20079;-78
2022/08/18 16:22:58;;;;;;;;;;;;;;;;;;5077088;28;19912;-78
2022/08/18 16:25:23;;;;;;;;;;;;;;;;;;5062309;28;19916;-78
2022/08/18 16:27:48;;;;;;;;;;;;;;;;;;5079283;28;19927;-78
2022/08/18 16:30:16;;;;;;;;;;;;;;;;;;5064382;28;19912;-78
2022/08/18 16:32:41;;;;;;;;;;;;;;;;;;5079663;28;19935;-78
2022/08/18 16:35:07;;;;;;;;;;;;;;;;;;5062615;28;20366;-78
2022/08/18 16:37:32;;;;;;;;;;;;;;;;;;5063124;28;20223;-78
2022/08/18 16:39:58;;;;;;;;;;;;;;;;;;5079082;28;19983;-78
2022/08/18 16:42:23;;;;;;;;;;;;;;;;;;5100628;28;19923;-77
2022/08/18 16:44:49;;;;;;;;;;;;;;;;;;5082116;28;19931;-78
2022/08/18 16:47:17;;;;;;;;;;;;;;;;;;5080012;28;19997;-78
2022/08/18 16:49:47;;;;;;;;;;;;;;;;;;5080204;28;19924;-77
2022/08/18 16:52:13;;;;;;;;;;;;;;;;;;5097609;28;19912;-78
2022/08/18 16:54:39;;;;;;;;;;;;;;;;;;5062215;28;19912;-78
2022/08/18 16:57:05;;;;;;;;;;;;;;;;;;5062630;28;19931;-78
2022/08/18 17:05:01;;;;;;;;;;;;;;;;;;5094182;28;19966;-78
2022/08/18 17:07:31;;;;;;;;;;;;;;;;;;5059825;28;20302;-78
2022/08/18 17:09:56;;;;;;;;;;;;;;;;;;5077916;28;20335;-78
2022/08/18 17:12:22;;;;;;;;;;;;;;;;;;5078742;28;19927;-79
2022/08/18 17:14:47;;;;;;;;;;;;;;;;;;5077402;28;19920;-79
2022/08/18 17:17:16;;;;;;;;;;;;;;;;;;5077180;28;19973;-78
2022/08/18 17:19:45;;;;;;;;;;;;;;;;;;5070540;28;19912;-78
2022/08/18 17:22:11;;;;;;;;;;;;;;;;;;5069428;28;19967;-77
2022/08/18 17:24:36;;;;;;;;;;;;;;;;;;5065237;28;20350;-77
2022/08/18 17:27:05;;;;;;;;;;;;;;;;;;5077777;28;19916;-77
2022/08/18 17:29:34;;;;;;;;;;;;;;;;;;5078631;28;19912;-78
2022/08/18 17:32:01;;;;;;;;;;;;;;;;;;5060845;28;19912;-78